Terminal Aerodrome Forecast
Issued by NWS

Home | Current Version | Previous Version | Text Only | Print | Product List | Glossary On
Versions: 1 2 3 4 5 6 7 8 9 10 11 12
000
FTUS44 KEPZ 271100
TAFTCS
TAF
KTCS 271120Z 2712/2812 VRB05KT P6SM BKN060
     FM271800 17006KT P6SM SCT060
     FM280400 28005KT P6SM SCT250=

USA.gov is the U.S. government's official web portal to all federal, state and local government web resources and services.